sensor_id;sensor_type;location;lat;lon;timestamp;temperature;humidity
29431;DHT22;16404;49.902;10.074;2023-03-23T00:02:24;16.70;50.40
29431;DHT22;16404;49.902;10.074;2023-03-23T00:05:09;16.80;50.50
29431;DHT22;16404;49.902;10.074;2023-03-23T00:07:53;16.80;50.40
29431;DHT22;16404;49.902;10.074;2023-03-23T00:10:39;16.90;50.40
29431;DHT22;16404;49.902;10.074;2023-03-23T00:13:25;16.90;50.30
29431;DHT22;16404;49.902;10.074;2023-03-23T00:16:10;16.90;50.30
29431;DHT22;16404;49.902;10.074;2023-03-23T00:19:03;16.90;50.20
29431;DHT22;16404;49.902;10.074;2023-03-23T00:21:48;16.90;50.00
29431;DHT22;16404;49.902;10.074;2023-03-23T00:24:33;16.90;50.10
29431;DHT22;16404;49.902;10.074;2023-03-23T00:27:18;16.90;50.20
29431;DHT22;16404;49.902;10.074;2023-03-23T00:30:03;16.90;50.20
29431;DHT22;16404;49.902;10.074;2023-03-23T00:32:48;16.90;50.20
29431;DHT22;16404;49.902;10.074;2023-03-23T00:35:33;16.90;50.40
29431;DHT22;16404;49.902;10.074;2023-03-23T00:38:20;16.80;50.30
29431;DHT22;16404;49.902;10.074;2023-03-23T00:41:05;16.80;50.40
29431;DHT22;16404;49.902;10.074;2023-03-23T00:43:50;16.80;50.40
29431;DHT22;16404;49.902;10.074;2023-03-23T00:46:35;16.90;50.60
29431;DHT22;16404;49.902;10.074;2023-03-23T00:49:29;17.00;50.50
29431;DHT22;16404;49.902;10.074;2023-03-23T00:52:13;17.10;50.60
29431;DHT22;16404;49.902;10.074;2023-03-23T00:54:58;17.10;50.60
29431;DHT22;16404;49.902;10.074;2023-03-23T00:57:43;17.10;50.60
29431;DHT22;16404;49.902;10.074;2023-03-23T01:00:27;17.20;50.50
29431;DHT22;16404;49.902;10.074;2023-03-23T01:03:12;17.10;50.40
29431;DHT22;16404;49.902;10.074;2023-03-23T01:06:10;17.20;50.40
29431;DHT22;16404;49.902;10.074;2023-03-23T01:09:00;17.10;50.40
29431;DHT22;16404;49.902;10.074;2023-03-23T01:11:47;17.10;50.50
29431;DHT22;16404;49.902;10.074;2023-03-23T01:14:32;17.00;50.60
29431;DHT22;16404;49.902;10.074;2023-03-23T01:17:17;16.90;50.70
29431;DHT22;16404;49.902;10.074;2023-03-23T01:20:03;16.90;50.80
29431;DHT22;16404;49.902;10.074;2023-03-23T01:22:49;16.90;51.00
29431;DHT22;16404;49.902;10.074;2023-03-23T01:25:36;16.80;51.10
29431;DHT22;16404;49.902;10.074;2023-03-23T01:28:21;16.80;51.20
29431;DHT22;16404;49.902;10.074;2023-03-23T01:31:08;16.70;51.30
29431;DHT22;16404;49.902;10.074;2023-03-23T01:33:54;16.70;51.50
29431;DHT22;16404;49.902;10.074;2023-03-23T01:36:40;16.70;51.60
29431;DHT22;16404;49.902;10.074;2023-03-23T01:39:25;16.60;51.60
29431;DHT22;16404;49.902;10.074;2023-03-23T01:42:09;16.70;51.40
29431;DHT22;16404;49.902;10.074;2023-03-23T01:47:39;16.80;51.20
29431;DHT22;16404;49.902;10.074;2023-03-23T01:50:24;16.80;51.20
29431;DHT22;16404;49.902;10.074;2023-03-23T01:53:10;16.80;51.10
29431;DHT22;16404;49.902;10.074;2023-03-23T01:55:57;16.80;50.80
29431;DHT22;16404;49.902;10.074;2023-03-23T01:58:42;16.80;50.90
29431;DHT22;16404;49.902;10.074;2023-03-23T02:01:27;16.80;51.10
29431;DHT22;16404;49.902;10.074;2023-03-23T02:04:13;16.80;51.10
29431;DHT22;16404;49.902;10.074;2023-03-23T02:07:00;16.80;51.10
29431;DHT22;16404;49.902;10.074;2023-03-23T02:09:46;16.80;50.90
29431;DHT22;16404;49.902;10.074;2023-03-23T02:12:32;16.80;50.80
29431;DHT22;16404;49.902;10.074;2023-03-23T02:15:17;16.90;50.80
29431;DHT22;16404;49.902;10.074;2023-03-23T02:34:20;16.80;50.90
29431;DHT22;16404;49.902;10.074;2023-03-23T02:37:09;16.80;50.70
29431;DHT22;16404;49.902;10.074;2023-03-23T02:40:04;16.80;50.70
29431;DHT22;16404;49.902;10.074;2023-03-23T02:42:57;16.70;50.70
29431;DHT22;16404;49.902;10.074;2023-03-23T02:45:44;16.70;50.80
29431;DHT22;16404;49.902;10.074;2023-03-23T02:48:30;16.60;50.90
29431;DHT22;16404;49.902;10.074;2023-03-23T02:51:15;16.70;50.90
29431;DHT22;16404;49.902;10.074;2023-03-23T02:54:02;16.70;51.00
29431;DHT22;16404;49.902;10.074;2023-03-23T02:56:47;16.70;51.10
29431;DHT22;16404;49.902;10.074;2023-03-23T02:59:40;16.60;51.00
29431;DHT22;16404;49.902;10.074;2023-03-23T03:02:35;16.60;51.00
29431;DHT22;16404;49.902;10.074;2023-03-23T03:05:44;16.60;51.10
29431;DHT22;16404;49.902;10.074;2023-03-23T03:08:50;16.60;51.10
29431;DHT22;16404;49.902;10.074;2023-03-23T03:11:37;16.60;51.00
29431;DHT22;16404;49.902;10.074;2023-03-23T03:14:31;16.60;51.00
29431;DHT22;16404;49.902;10.074;2023-03-23T03:17:25;16.50;51.10
29431;DHT22;16404;49.902;10.074;2023-03-23T03:20:10;16.50;51.00
29431;DHT22;16404;49.902;10.074;2023-03-23T03:22:59;16.50;51.00
29431;DHT22;16404;49.902;10.074;2023-03-23T03:25:46;16.50;51.10
29431;DHT22;16404;49.902;10.074;2023-03-23T03:28:41;16.50;51.10
29431;DHT22;16404;49.902;10.074;2023-03-23T03:31:30;16.60;51.20
29431;DHT22;16404;49.902;10.074;2023-03-23T03:34:17;16.60;51.10
29431;DHT22;16404;49.902;10.074;2023-03-23T03:37:05;16.60;51.10
29431;DHT22;16404;49.902;10.074;2023-03-23T03:39:51;16.60;51.20
29431;DHT22;16404;49.902;10.074;2023-03-23T03:42:41;16.50;51.20
29431;DHT22;16404;49.902;10.074;2023-03-23T03:45:26;16.50;51.50
29431;DHT22;16404;49.902;10.074;2023-03-23T03:48:11;16.50;51.60
29431;DHT22;16404;49.902;10.074;2023-03-23T03:50:55;16.40;51.60
29431;DHT22;16404;49.902;10.074;2023-03-23T03:53:41;16.40;51.70
29431;DHT22;16404;49.902;10.074;2023-03-23T03:56:25;16.40;51.90
29431;DHT22;16404;49.902;10.074;2023-03-23T03:59:30;16.40;52.10
29431;DHT22;16404;49.902;10.074;2023-03-23T04:02:50;16.30;52.30
29431;DHT22;16404;49.902;10.074;2023-03-23T04:05:49;16.30;52.40
29431;DHT22;16404;49.902;10.074;2023-03-23T04:08:36;16.30;52.60
29431;DHT22;16404;49.902;10.074;2023-03-23T04:11:22;16.30;52.50
29431;DHT22;16404;49.902;10.074;2023-03-23T04:14:07;16.30;52.60
29431;DHT22;16404;49.902;10.074;2023-03-23T04:17:00;16.30;52.70
29431;DHT22;16404;49.902;10.074;2023-03-23T04:19:44;16.20;52.60
29431;DHT22;16404;49.902;10.074;2023-03-23T04:22:32;16.20;52.70
29431;DHT22;16404;49.902;10.074;2023-03-23T04:25:19;16.20;52.90
29431;DHT22;16404;49.902;10.074;2023-03-23T04:28:08;16.20;53.00
29431;DHT22;16404;49.902;10.074;2023-03-23T04:31:00;16.20;53.00
29431;DHT22;16404;49.902;10.074;2023-03-23T04:33:46;16.10;53.00
29431;DHT22;16404;49.902;10.074;2023-03-23T04:36:32;16.10;53.10
29431;DHT22;16404;49.902;10.074;2023-03-23T04:39:27;16.10;53.10
29431;DHT22;16404;49.902;10.074;2023-03-23T04:42:13;16.10;53.10
29431;DHT22;16404;49.902;10.074;2023-03-23T04:45:36;16.10;53.10
29431;DHT22;16404;49.902;10.074;2023-03-23T04:48:26;16.10;53.10
29431;DHT22;16404;49.902;10.074;2023-03-23T04:51:20;16.10;53.10
29431;DHT22;16404;49.902;10.074;2023-03-23T04:54:08;16.10;53.10
29431;DHT22;16404;49.902;10.074;2023-03-23T04:56:53;16.10;53.10
29431;DHT22;16404;49.902;10.074;2023-03-23T04:59:38;16.10;53.10
29431;DHT22;16404;49.902;10.074;2023-03-23T05:02:27;16.00;53.00
29431;DHT22;16404;49.902;10.074;2023-03-23T05:05:14;16.00;53.30
29431;DHT22;16404;49.902;10.074;2023-03-23T05:07:59;16.00;53.50
29431;DHT22;16404;49.902;10.074;2023-03-23T05:10:55;16.00;53.50
29431;DHT22;16404;49.902;10.074;2023-03-23T05:13:42;16.00;53.70
29431;DHT22;16404;49.902;10.074;2023-03-23T05:16:29;16.00;53.60
29431;DHT22;16404;49.902;10.074;2023-03-23T05:19:14;16.00;53.80
29431;DHT22;16404;49.902;10.074;2023-03-23T05:21:59;16.10;53.70
29431;DHT22;16404;49.902;10.074;2023-03-23T05:24:50;16.10;53.40
29431;DHT22;16404;49.902;10.074;2023-03-23T05:27:37;16.00;53.50
29431;DHT22;16404;49.902;10.074;2023-03-23T05:30:32;16.00;53.70
29431;DHT22;16404;49.902;10.074;2023-03-23T05:33:17;16.00;54.00
29431;DHT22;16404;49.902;10.074;2023-03-23T05:36:08;16.00;54.10
29431;DHT22;16404;49.902;10.074;2023-03-23T05:39:14;16.00;54.00
29431;DHT22;16404;49.902;10.074;2023-03-23T05:42:29;16.00;54.30
29431;DHT22;16404;49.902;10.074;2023-03-23T05:45:22;15.90;54.60
29431;DHT22;16404;49.902;10.074;2023-03-23T05:48:08;15.90;55.00
29431;DHT22;16404;49.902;10.074;2023-03-23T05:50:53;16.00;55.40
29431;DHT22;16404;49.902;10.074;2023-03-23T05:53:40;15.90;55.20
29431;DHT22;16404;49.902;10.074;2023-03-23T05:56:26;15.90;55.40
29431;DHT22;16404;49.902;10.074;2023-03-23T05:59:37;15.80;55.60
29431;DHT22;16404;49.902;10.074;2023-03-23T06:02:25;15.80;55.80
29431;DHT22;16404;49.902;10.074;2023-03-23T06:05:13;15.80;55.80
29431;DHT22;16404;49.902;10.074;2023-03-23T06:08:03;15.70;56.00
29431;DHT22;16404;49.902;10.074;2023-03-23T06:10:48;15.60;56.20
29431;DHT22;16404;49.902;10.074;2023-03-23T06:13:32;15.60;56.70
29431;DHT22;16404;49.902;10.074;2023-03-23T06:16:23;15.60;57.10
29431;DHT22;16404;49.902;10.074;2023-03-23T06:19:14;15.60;56.60
29431;DHT22;16404;49.902;10.074;2023-03-23T06:22:07;15.60;57.10
29431;DHT22;16404;49.902;10.074;2023-03-23T06:25:23;15.60;57.30
29431;DHT22;16404;49.902;10.074;2023-03-23T06:28:08;15.50;57.30
29431;DHT22;16404;49.902;10.074;2023-03-23T06:31:01;15.40;57.50
29431;DHT22;16404;49.902;10.074;2023-03-23T06:33:48;15.40;57.80
29431;DHT22;16404;49.902;10.074;2023-03-23T06:36:42;15.40;57.90
29431;DHT22;16404;49.902;10.074;2023-03-23T06:39:33;15.50;58.10
29431;DHT22;16404;49.902;10.074;2023-03-23T06:42:40;15.50;58.20
29431;DHT22;16404;49.902;10.074;2023-03-23T06:45:53;15.60;58.20
29431;DHT22;16404;49.902;10.074;2023-03-23T06:48:44;15.60;58.30
29431;DHT22;16404;49.902;10.074;2023-03-23T06:51:34;15.70;58.50
29431;DHT22;16404;49.902;10.074;2023-03-23T06:54:19;15.70;58.50
29431;DHT22;16404;49.902;10.074;2023-03-23T06:57:04;15.70;58.40
29431;DHT22;16404;49.902;10.074;2023-03-23T06:59:49;15.80;58.30
29431;DHT22;16404;49.902;10.074;2023-03-23T07:02:34;15.90;58.00
29431;DHT22;16404;49.902;10.074;2023-03-23T07:05:18;15.90;58.00
29431;DHT22;16404;49.902;10.074;2023-03-23T07:08:06;16.00;58.20
29431;DHT22;16404;49.902;10.074;2023-03-23T07:10:59;15.90;58.30
29431;DHT22;16404;49.902;10.074;2023-03-23T07:13:46;15.90;58.50
29431;DHT22;16404;49.902;10.074;2023-03-23T07:16:32;15.80;58.80
29431;DHT22;16404;49.902;10.074;2023-03-23T07:19:16;15.90;59.10
29431;DHT22;16404;49.902;10.074;2023-03-23T07:22:03;15.90;59.10
29431;DHT22;16404;49.902;10.074;2023-03-23T07:24:48;15.90;59.10
29431;DHT22;16404;49.902;10.074;2023-03-23T07:27:38;15.80;59.20
29431;DHT22;16404;49.902;10.074;2023-03-23T07:30:23;15.80;59.30
29431;DHT22;16404;49.902;10.074;2023-03-23T07:33:08;15.70;59.30
29431;DHT22;16404;49.902;10.074;2023-03-23T07:35:53;15.70;59.10
29431;DHT22;16404;49.902;10.074;2023-03-23T07:38:39;15.70;59.40
29431;DHT22;16404;49.902;10.074;2023-03-23T07:41:24;15.60;59.60
29431;DHT22;16404;49.902;10.074;2023-03-23T07:44:10;15.60;59.50
29431;DHT22;16404;49.902;10.074;2023-03-23T07:46:55;15.60;59.50
29431;DHT22;16404;49.902;10.074;2023-03-23T07:49:48;15.60;59.40
29431;DHT22;16404;49.902;10.074;2023-03-23T07:52:42;15.60;59.30
29431;DHT22;16404;49.902;10.074;2023-03-23T07:55:27;15.70;59.40
29431;DHT22;16404;49.902;10.074;2023-03-23T07:58:21;15.70;59.30
29431;DHT22;16404;49.902;10.074;2023-03-23T08:01:12;15.80;59.40
29431;DHT22;16404;49.902;10.074;2023-03-23T08:03:58;15.80;59.30
29431;DHT22;16404;49.902;10.074;2023-03-23T08:07:01;15.80;59.30
29431;DHT22;16404;49.902;10.074;2023-03-23T08:09:57;15.80;59.40
29431;DHT22;16404;49.902;10.074;2023-03-23T08:13:15;15.90;59.50
29431;DHT22;16404;49.902;10.074;2023-03-23T08:16:19;15.90;59.70
29431;DHT22;16404;49.902;10.074;2023-03-23T08:19:27;15.90;59.60
29431;DHT22;16404;49.902;10.074;2023-03-23T08:22:31;15.90;59.80
29431;DHT22;16404;49.902;10.074;2023-03-23T08:25:42;15.80;60.40
29431;DHT22;16404;49.902;10.074;2023-03-23T08:28:46;15.90;60.60
29431;DHT22;16404;49.902;10.074;2023-03-23T08:32:00;15.90;60.80
29431;DHT22;16404;49.902;10.074;2023-03-23T08:35:10;15.90;61.00
29431;DHT22;16404;49.902;10.074;2023-03-23T08:38:15;16.00;61.20
29431;DHT22;16404;49.902;10.074;2023-03-23T08:41:29;16.00;61.30
29431;DHT22;16404;49.902;10.074;2023-03-23T08:44:43;16.00;61.50
29431;DHT22;16404;49.902;10.074;2023-03-23T08:47:51;16.00;61.70
29431;DHT22;16404;49.902;10.074;2023-03-23T08:50:46;16.10;61.60
29431;DHT22;16404;49.902;10.074;2023-03-23T08:53:34;16.10;61.60
29431;DHT22;16404;49.902;10.074;2023-03-23T08:56:42;16.10;61.80
29431;DHT22;16404;49.902;10.074;2023-03-23T08:59:43;16.10;62.00
29431;DHT22;16404;49.902;10.074;2023-03-23T09:02:35;16.20;61.80
29431;DHT22;16404;49.902;10.074;2023-03-23T09:05:31;16.20;62.00
29431;DHT22;16404;49.902;10.074;2023-03-23T09:08:35;16.40;61.70
29431;DHT22;16404;49.902;10.074;2023-03-23T09:11:20;16.50;61.10
29431;DHT22;16404;49.902;10.074;2023-03-23T09:14:07;16.50;61.10
29431;DHT22;16404;49.902;10.074;2023-03-23T09:16:52;16.60;61.30
29431;DHT22;16404;49.902;10.074;2023-03-23T09:19:36;16.60;61.30
29431;DHT22;16404;49.902;10.074;2023-03-23T09:22:21;16.60;61.10
29431;DHT22;16404;49.902;10.074;2023-03-23T09:25:08;16.60;60.90
29431;DHT22;16404;49.902;10.074;2023-03-23T09:27:55;16.50;60.70
29431;DHT22;16404;49.902;10.074;2023-03-23T09:30:40;16.60;60.70
29431;DHT22;16404;49.902;10.074;2023-03-23T09:33:25;16.60;60.40
29431;DHT22;16404;49.902;10.074;2023-03-23T09:36:10;16.70;60.60
29431;DHT22;16404;49.902;10.074;2023-03-23T09:38:57;16.70;61.10
29431;DHT22;16404;49.902;10.074;2023-03-23T09:45:10;17.10;60.80
29431;DHT22;16404;49.902;10.074;2023-03-23T09:48:23;17.10;60.30
29431;DHT22;16404;49.902;10.074;2023-03-23T09:57:00;17.10;60.10
29431;DHT22;16404;49.902;10.074;2023-03-23T10:00:10;17.10;60.10
29431;DHT22;16404;49.902;10.074;2023-03-23T10:03:10;17.00;60.20
29431;DHT22;16404;49.902;10.074;2023-03-23T10:05:59;17.00;60.20
29431;DHT22;16404;49.902;10.074;2023-03-23T10:08:48;16.90;60.20
29431;DHT22;16404;49.902;10.074;2023-03-23T10:15:04;16.90;60.50
29431;DHT22;16404;49.902;10.074;2023-03-23T10:18:08;17.00;60.90
29431;DHT22;16404;49.902;10.074;2023-03-23T10:20:57;17.00;60.90
29431;DHT22;16404;49.902;10.074;2023-03-23T10:24:04;17.00;60.70
29431;DHT22;16404;49.902;10.074;2023-03-23T10:27:12;17.10;61.10
29431;DHT22;16404;49.902;10.074;2023-03-23T10:30:03;17.10;60.70
29431;DHT22;16404;49.902;10.074;2023-03-23T10:36:38;17.10;60.10
29431;DHT22;16404;49.902;10.074;2023-03-23T10:39:29;17.10;59.60
29431;DHT22;16404;49.902;10.074;2023-03-23T10:42:22;17.10;59.20
29431;DHT22;16404;49.902;10.074;2023-03-23T10:50:57;17.20;59.30
29431;DHT22;16404;49.902;10.074;2023-03-23T10:53:50;17.20;59.10
29431;DHT22;16404;49.902;10.074;2023-03-23T10:56:40;17.30;58.70
29431;DHT22;16404;49.902;10.074;2023-03-23T10:59:30;17.40;58.70
29431;DHT22;16404;49.902;10.074;2023-03-23T11:02:18;17.50;58.90
29431;DHT22;16404;49.902;10.074;2023-03-23T11:05:16;17.70;58.20
29431;DHT22;16404;49.902;10.074;2023-03-23T11:08:01;17.80;57.90
29431;DHT22;16404;49.902;10.074;2023-03-23T11:14:02;18.10;57.50
29431;DHT22;16404;49.902;10.074;2023-03-23T11:16:52;18.20;57.10
29431;DHT22;16404;49.902;10.074;2023-03-23T11:19:37;18.30;56.70
29431;DHT22;16404;49.902;10.074;2023-03-23T11:22:29;18.40;56.20
29431;DHT22;16404;49.902;10.074;2023-03-23T11:25:15;18.50;56.00
29431;DHT22;16404;49.902;10.074;2023-03-23T11:28:01;18.70;55.60
29431;DHT22;16404;49.902;10.074;2023-03-23T11:30:45;18.80;55.00
29431;DHT22;16404;49.902;10.074;2023-03-23T11:33:36;18.80;54.60
29431;DHT22;16404;49.902;10.074;2023-03-23T11:36:36;18.80;54.00
29431;DHT22;16404;49.902;10.074;2023-03-23T11:39:24;18.80;54.30
29431;DHT22;16404;49.902;10.074;2023-03-23T11:42:19;18.90;53.90
29431;DHT22;16404;49.902;10.074;2023-03-23T11:45:36;19.00;53.70
29431;DHT22;16404;49.902;10.074;2023-03-23T11:54:09;19.00;52.80
29431;DHT22;16404;49.902;10.074;2023-03-23T11:56:55;18.80;52.80
29431;DHT22;16404;49.902;10.074;2023-03-23T11:59:40;18.80;53.40
29431;DHT22;16404;49.902;10.074;2023-03-23T12:15:07;18.70;53.80
29431;DHT22;16404;49.902;10.074;2023-03-23T12:24:33;18.70;53.80
29431;DHT22;16404;49.902;10.074;2023-03-23T12:27:32;18.70;54.30
29431;DHT22;16404;49.902;10.074;2023-03-23T12:30:37;18.80;54.00
29431;DHT22;16404;49.902;10.074;2023-03-23T12:36:47;18.70;54.00
29431;DHT22;16404;49.902;10.074;2023-03-23T12:43:15;18.70;54.00
29431;DHT22;16404;49.902;10.074;2023-03-23T12:52:33;18.50;54.70
29431;DHT22;16404;49.902;10.074;2023-03-23T12:55:38;18.60;55.00
29431;DHT22;16404;49.902;10.074;2023-03-23T12:58:28;18.70;55.00
29431;DHT22;16404;49.902;10.074;2023-03-23T13:01:25;18.70;55.00
29431;DHT22;16404;49.902;10.074;2023-03-23T13:04:36;18.70;55.10
29431;DHT22;16404;49.902;10.074;2023-03-23T13:07:26;18.90;55.10
29431;DHT22;16404;49.902;10.074;2023-03-23T13:10:22;19.10;54.50
29431;DHT22;16404;49.902;10.074;2023-03-23T13:13:11;19.20;54.20
29431;DHT22;16404;49.902;10.074;2023-03-23T13:24:58;19.50;53.70
29431;DHT22;16404;49.902;10.074;2023-03-23T13:27:56;19.60;53.50
29431;DHT22;16404;49.902;10.074;2023-03-23T13:33:49;19.60;53.30
29431;DHT22;16404;49.902;10.074;2023-03-23T13:36:41;19.70;52.80
29431;DHT22;16404;49.902;10.074;2023-03-23T13:39:53;19.60;52.50
29431;DHT22;16404;49.902;10.074;2023-03-23T13:42:51;19.40;52.90
29431;DHT22;16404;49.902;10.074;2023-03-23T13:45:42;19.40;52.80
29431;DHT22;16404;49.902;10.074;2023-03-23T13:48:27;19.40;52.90
29431;DHT22;16404;49.902;10.074;2023-03-23T13:57:26;19.50;53.20
29431;DHT22;16404;49.902;10.074;2023-03-23T14:00:44;19.70;53.10
29431;DHT22;16404;49.902;10.074;2023-03-23T14:03:36;19.70;53.00
29431;DHT22;16404;49.902;10.074;2023-03-23T14:06:23;19.70;53.00
29431;DHT22;16404;49.902;10.074;2023-03-23T14:09:37;19.60;53.00
29431;DHT22;16404;49.902;10.074;2023-03-23T14:12:27;19.50;53.10
29431;DHT22;16404;49.902;10.074;2023-03-23T14:15:13;19.40;53.00
29431;DHT22;16404;49.902;10.074;2023-03-23T14:18:01;19.20;53.10
29431;DHT22;16404;49.902;10.074;2023-03-23T14:20:47;19.10;53.00
29431;DHT22;16404;49.902;10.074;2023-03-23T14:23:33;19.10;53.30
29431;DHT22;16404;49.902;10.074;2023-03-23T14:26:20;19.10;53.50
29431;DHT22;16404;49.902;10.074;2023-03-23T14:29:05;19.20;53.60
29431;DHT22;16404;49.902;10.074;2023-03-23T14:31:57;19.20;53.10
29431;DHT22;16404;49.902;10.074;2023-03-23T14:34:43;19.20;53.20
29431;DHT22;16404;49.902;10.074;2023-03-23T14:37:31;19.20;53.30
29431;DHT22;16404;49.902;10.074;2023-03-23T14:40:17;19.30;53.30
29431;DHT22;16404;49.902;10.074;2023-03-23T14:43:02;19.30;53.30
29431;DHT22;16404;49.902;10.074;2023-03-23T14:45:52;19.20;53.40
29431;DHT22;16404;49.902;10.074;2023-03-23T14:48:38;19.10;53.50
29431;DHT22;16404;49.902;10.074;2023-03-23T14:51:22;19.00;53.70
29431;DHT22;16404;49.902;10.074;2023-03-23T14:54:08;19.10;53.70
29431;DHT22;16404;49.902;10.074;2023-03-23T14:56:54;19.00;53.70
29431;DHT22;16404;49.902;10.074;2023-03-23T14:59:43;18.80;53.70
29431;DHT22;16404;49.902;10.074;2023-03-23T15:02:32;18.80;54.00
29431;DHT22;16404;49.902;10.074;2023-03-23T15:05:40;18.80;54.10
29431;DHT22;16404;49.902;10.074;2023-03-23T15:08:27;18.70;54.20
29431;DHT22;16404;49.902;10.074;2023-03-23T15:14:22;18.70;54.20
29431;DHT22;16404;49.902;10.074;2023-03-23T15:17:17;18.60;54.40
29431;DHT22;16404;49.902;10.074;2023-03-23T15:20:22;18.60;54.20
29431;DHT22;16404;49.902;10.074;2023-03-23T15:23:27;18.60;54.20
29431;DHT22;16404;49.902;10.074;2023-03-23T15:26:42;18.60;54.20
29431;DHT22;16404;49.902;10.074;2023-03-23T15:29:27;18.60;54.00
29431;DHT22;16404;49.902;10.074;2023-03-23T15:32:11;18.60;53.60
29431;DHT22;16404;49.902;10.074;2023-03-23T15:34:57;18.50;53.70
29431;DHT22;16404;49.902;10.074;2023-03-23T15:38:06;18.50;53.60
29431;DHT22;16404;49.902;10.074;2023-03-23T15:40:56;18.50;53.70
29431;DHT22;16404;49.902;10.074;2023-03-23T15:43:53;18.50;53.80
29431;DHT22;16404;49.902;10.074;2023-03-23T15:46:55;18.60;53.70
29431;DHT22;16404;49.902;10.074;2023-03-23T15:49:46;18.50;53.90
29431;DHT22;16404;49.902;10.074;2023-03-23T15:52:30;18.40;54.10
29431;DHT22;16404;49.902;10.074;2023-03-23T15:58:12;18.30;54.50
29431;DHT22;16404;49.902;10.074;2023-03-23T16:00:57;18.30;54.70
29431;DHT22;16404;49.902;10.074;2023-03-23T16:03:47;18.10;54.80
29431;DHT22;16404;49.902;10.074;2023-03-23T16:06:33;18.10;55.10
29431;DHT22;16404;49.902;10.074;2023-03-23T16:09:19;18.00;55.30
29431;DHT22;16404;49.902;10.074;2023-03-23T16:12:04;18.00;55.40
29431;DHT22;16404;49.902;10.074;2023-03-23T16:14:48;17.90;55.40
29431;DHT22;16404;49.902;10.074;2023-03-23T16:17:33;17.90;55.40
29431;DHT22;16404;49.902;10.074;2023-03-23T16:20:20;17.80;55.60
29431;DHT22;16404;49.902;10.074;2023-03-23T16:23:05;17.80;55.70
29431;DHT22;16404;49.902;10.074;2023-03-23T16:25:49;17.80;55.60
29431;DHT22;16404;49.902;10.074;2023-03-23T16:28:34;17.70;55.70
29431;DHT22;16404;49.902;10.074;2023-03-23T16:31:19;17.70;55.80
29431;DHT22;16404;49.902;10.074;2023-03-23T16:34:03;17.60;55.90
29431;DHT22;16404;49.902;10.074;2023-03-23T16:36:48;17.70;55.90
29431;DHT22;16404;49.902;10.074;2023-03-23T16:39:33;17.70;55.90
29431;DHT22;16404;49.902;10.074;2023-03-23T16:42:18;17.60;56.00
29431;DHT22;16404;49.902;10.074;2023-03-23T16:45:02;17.60;56.10
29431;DHT22;16404;49.902;10.074;2023-03-23T16:47:47;17.50;56.20
29431;DHT22;16404;49.902;10.074;2023-03-23T16:50:32;17.50;56.30
29431;DHT22;16404;49.902;10.074;2023-03-23T16:53:17;17.50;56.40
29431;DHT22;16404;49.902;10.074;2023-03-23T16:56:02;17.50;56.40
29431;DHT22;16404;49.902;10.074;2023-03-23T16:58:47;17.60;56.40
29431;DHT22;16404;49.902;10.074;2023-03-23T17:01:31;17.60;56.10
29431;DHT22;16404;49.902;10.074;2023-03-23T17:04:15;17.60;56.10
29431;DHT22;16404;49.902;10.074;2023-03-23T17:07:00;17.50;56.20
29431;DHT22;16404;49.902;10.074;2023-03-23T17:09:45;17.40;56.30
29431;DHT22;16404;49.902;10.074;2023-03-23T17:12:30;17.40;56.40
29431;DHT22;16404;49.902;10.074;2023-03-23T17:15:14;17.40;56.40
29431;DHT22;16404;49.902;10.074;2023-03-23T17:17:59;17.50;56.40
29431;DHT22;16404;49.902;10.074;2023-03-23T17:20:45;17.40;56.50
29431;DHT22;16404;49.902;10.074;2023-03-23T17:23:29;17.40;56.40
29431;DHT22;16404;49.902;10.074;2023-03-23T17:26:14;17.50;56.50
29431;DHT22;16404;49.902;10.074;2023-03-23T17:28:58;17.50;56.30
29431;DHT22;16404;49.902;10.074;2023-03-23T17:31:43;17.50;56.30
29431;DHT22;16404;49.902;10.074;2023-03-23T17:34:28;17.50;56.30
29431;DHT22;16404;49.902;10.074;2023-03-23T17:37:12;17.60;56.20
29431;DHT22;16404;49.902;10.074;2023-03-23T17:39:57;17.60;56.10
29431;DHT22;16404;49.902;10.074;2023-03-23T17:42:42;17.50;56.10
29431;DHT22;16404;49.902;10.074;2023-03-23T17:45:26;17.40;56.20
29431;DHT22;16404;49.902;10.074;2023-03-23T17:48:11;17.50;56.30
29431;DHT22;16404;49.902;10.074;2023-03-23T17:50:56;17.50;56.30
29431;DHT22;16404;49.902;10.074;2023-03-23T17:53:40;17.40;56.20
29431;DHT22;16404;49.902;10.074;2023-03-23T17:56:25;17.40;56.30
29431;DHT22;16404;49.902;10.074;2023-03-23T17:59:10;17.40;56.40
29431;DHT22;16404;49.902;10.074;2023-03-23T18:01:55;17.40;56.30
29431;DHT22;16404;49.902;10.074;2023-03-23T18:04:40;17.40;56.50
29431;DHT22;16404;49.902;10.074;2023-03-23T18:07:26;17.30;56.60
29431;DHT22;16404;49.902;10.074;2023-03-23T18:10:10;17.30;56.80
29431;DHT22;16404;49.902;10.074;2023-03-23T18:12:55;17.20;56.80
29431;DHT22;16404;49.902;10.074;2023-03-23T18:15:43;17.30;56.70
29431;DHT22;16404;49.902;10.074;2023-03-23T18:18:27;17.30;56.70
29431;DHT22;16404;49.902;10.074;2023-03-23T18:21:12;17.30;56.80
29431;DHT22;16404;49.902;10.074;2023-03-23T18:23:56;17.30;56.90
29431;DHT22;16404;49.902;10.074;2023-03-23T18:26:41;17.30;56.80
29431;DHT22;16404;49.902;10.074;2023-03-23T18:29:25;17.30;56.80
29431;DHT22;16404;49.902;10.074;2023-03-23T18:32:10;17.40;56.80
29431;DHT22;16404;49.902;10.074;2023-03-23T18:34:54;17.40;56.70
29431;DHT22;16404;49.902;10.074;2023-03-23T18:37:39;17.50;56.60
29431;DHT22;16404;49.902;10.074;2023-03-23T18:40:24;17.60;56.60
29431;DHT22;16404;49.902;10.074;2023-03-23T18:43:09;17.70;56.30
29431;DHT22;16404;49.902;10.074;2023-03-23T18:45:55;17.70;56.20
29431;DHT22;16404;49.902;10.074;2023-03-23T18:48:40;17.80;55.90
29431;DHT22;16404;49.902;10.074;2023-03-23T18:51:24;17.90;55.70
29431;DHT22;16404;49.902;10.074;2023-03-23T18:54:09;18.00;55.60
29431;DHT22;16404;49.902;10.074;2023-03-23T18:56:54;18.00;55.60
29431;DHT22;16404;49.902;10.074;2023-03-23T18:59:38;18.00;55.60
29431;DHT22;16404;49.902;10.074;2023-03-23T19:02:23;18.00;55.60
29431;DHT22;16404;49.902;10.074;2023-03-23T19:05:09;18.00;55.50
29431;DHT22;16404;49.902;10.074;2023-03-23T19:07:54;18.00;55.50
29431;DHT22;16404;49.902;10.074;2023-03-23T19:10:40;18.00;55.50
29431;DHT22;16404;49.902;10.074;2023-03-23T19:13:27;17.90;55.70
29431;DHT22;16404;49.902;10.074;2023-03-23T19:16:12;17.90;55.70
29431;DHT22;16404;49.902;10.074;2023-03-23T19:18:57;17.90;55.70
29431;DHT22;16404;49.902;10.074;2023-03-23T19:21:41;17.90;55.50
29431;DHT22;16404;49.902;10.074;2023-03-23T19:24:26;17.90;55.50